Wolf Point, MT

4:30 PM MDT on July 30, 2016 (GMT -0600)
Clayton | | Change Station

Elev 1985 ft 48.09 °N, 105.58 °W | Updated 37 minutes ago

Clear
Clear
92 °F
Feels Like 92 °F
N
6
Wind Variable Wind from Variable

Today
High -- | Low -- °F
--% Chance of Precip.
Yesterday
High -- | Low -- °F
Precip. -- in
Pressure 29.72 in
Visibility 10.0 miles
Clouds Clear
Dew Point 52 °F
Humidity 26%
Rainfall 0.00 in
Snow Depth Not available.
5:36 AM 8:40 PM
Waning Crescent, 10% visible
METAR KOLF 302153Z AUTO VRB05KT 10SM CLR 33/11 A2975 RMK AO2 SLP062 T03330111
Pressure 29.72 in
Visibility 10.0 miles
Clouds Clear
Dew Point 52 °F
Humidity 26%
Rainfall 0.00 in
Snow Depth Not available.
5:36 AM 8:40 PM
Waning Crescent, 10% visible
METAR KOLF 302153Z AUTO VRB05KT 10SM CLR 33/11 A2975 RMK AO2 SLP062 T03330111

10-Day Weather Forecast

Almanac

Astronomy

Jul. 30, 2016 Rise Set
Actual Time
Civil Twilight
Nautical Twilight
Astronomical Twilight
Moon
Length of Visible Light
Length of Day
Tomorrow will be .
, % of the Moon is Illuminated

Today's Extremes

State Highs State Lows

Community

WunderPhotos

Upload Photos

1,928,663 photos uploaded!

WunderBlog® & News

Nearby

Air Quality

  Air Quality AQ Index Pollutant
Not available.

Snow Depth

Station Depth Elevation

Earthquake Activity

City Distance Mag. Time & Date
Minimum magnitude displayed is 2.5.

Coastal Water Temperatures

Place Temperature

Stations

Nearby Weather Stations

Station Location Temp. Windchill Dew Point Humidity Wind Precip. Elev Updated Type
                   

Watches & Warnings

There are currently no watches in effect.